Time;durP1;ratioP1;P1;durP2;ratioP2;P2;SDS_P1;SDS_P2;PMS_P1;PMS_P2;Temp;Humidity;BMP_temperature;BMP_pressure;BME280_temperature;BME280_humidity;BME280_pressure;Samples;Min_cycle;Max_cycle;Signal;HPM_P1;HPM_P2
2022/02/22 00:01:47;;;;;;;32.10;4.43;;;5.80;99.90;;;;;;5008782;28;20037;-62
2022/02/22 00:04:13;;;;;;;21.80;4.00;;;5.80;99.90;;;;;;5013429;28;20046;-61
2022/02/22 00:06:38;;;;;;;25.35;3.33;;;5.80;99.90;;;;;;5013393;28;20061;-62
2022/02/22 00:09:04;;;;;;;40.22;5.00;;;5.80;99.90;;;;;;5013066;28;20029;-64
2022/02/22 00:11:30;;;;;;;20.92;3.22;;;5.70;99.90;;;;;;5012700;28;20061;-62
2022/02/22 00:13:55;;;;;;;18.67;3.78;;;5.70;99.90;;;;;;5013034;28;20037;-61
2022/02/22 00:16:21;;;;;;;29.67;4.15;;;5.70;99.90;;;;;;5011804;28;20034;-62
2022/02/22 00:18:47;;;;;;;34.00;4.57;;;5.70;99.90;;;;;;5012943;28;20030;-62
2022/02/22 00:21:12;;;;;;;30.67;3.15;;;5.60;99.90;;;;;;5012651;28;20042;-62
2022/02/22 00:23:39;;;;;;;31.27;4.45;;;5.60;99.90;;;;;;5013144;28;20494;-62
2022/02/22 00:26:05;;;;;;;24.85;3.17;;;5.60;99.90;;;;;;5012414;28;20026;-62
2022/02/22 00:28:31;;;;;;;31.75;4.90;;;5.60;99.90;;;;;;5013086;28;20038;-62
2022/02/22 00:30:57;;;;;;;23.80;3.33;;;5.60;99.90;;;;;;5012251;28;20033;-62
2022/02/22 00:33:23;;;;;;;20.25;2.75;;;5.60;99.90;;;;;;5011692;28;20489;-60
2022/02/22 00:35:49;;;;;;;25.67;4.18;;;5.60;99.90;;;;;;5012449;28;20048;-62
2022/02/22 00:38:15;;;;;;;25.23;4.78;;;5.60;99.90;;;;;;5012866;28;20040;-62
2022/02/22 00:40:41;;;;;;;24.67;4.10;;;5.50;99.90;;;;;;5010708;28;20061;-61
2022/02/22 00:43:07;;;;;;;29.23;3.90;;;5.50;99.90;;;;;;5012408;28;20061;-64
2022/02/22 00:45:32;;;;;;;24.23;3.88;;;5.50;99.90;;;;;;5012673;28;20038;-63
2022/02/22 00:47:58;;;;;;;22.35;3.55;;;5.40;99.90;;;;;;5010973;28;20109;-62
2022/02/22 00:50:24;;;;;;;19.27;3.80;;;5.40;99.90;;;;;;5012399;28;20038;-62
2022/02/22 00:52:49;;;;;;;25.48;3.97;;;5.30;99.90;;;;;;5012038;28;20092;-62
2022/02/22 00:55:15;;;;;;;26.05;3.38;;;5.30;99.90;;;;;;5012484;28;20100;-62
2022/02/22 00:57:43;;;;;;;26.92;4.43;;;5.30;99.90;;;;;;5011965;28;20477;-62
2022/02/22 01:00:09;;;;;;;22.08;4.05;;;5.20;99.90;;;;;;5012158;28;21572;-63
2022/02/22 01:02:35;;;;;;;24.42;3.53;;;5.20;99.90;;;;;;5011304;28;20128;-63
2022/02/22 01:05:00;;;;;;;24.67;5.55;;;5.20;99.90;;;;;;5010388;28;20113;-62
2022/02/22 01:07:26;;;;;;;30.48;4.20;;;5.20;99.90;;;;;;5012338;28;20042;-62
2022/02/22 01:09:52;;;;;;;27.00;3.10;;;5.20;99.90;;;;;;5010038;28;20494;-63
2022/02/22 01:12:17;;;;;;;28.77;4.35;;;5.20;99.90;;;;;;5012210;28;20064;-63
2022/02/22 01:14:44;;;;;;;27.75;4.47;;;5.20;99.90;;;;;;5008063;28;20026;-62
2022/02/22 01:17:10;;;;;;;20.95;3.05;;;5.20;99.90;;;;;;5012116;28;20512;-62
2022/02/22 01:19:36;;;;;;;44.03;4.75;;;5.20;99.90;;;;;;5012107;28;20065;-61
2022/02/22 01:22:02;;;;;;;25.33;4.25;;;5.20;99.90;;;;;;5011023;28;20036;-63
2022/02/22 01:24:28;;;;;;;28.60;4.78;;;5.20;99.90;;;;;;5011978;28;20137;-62
2022/02/22 01:26:54;;;;;;;31.02;2.97;;;5.20;99.90;;;;;;5011226;28;20537;-63
2022/02/22 01:29:19;;;;;;;31.20;4.30;;;5.10;99.90;;;;;;5011891;28;20046;-63
2022/02/22 01:31:45;;;;;;;22.05;4.50;;;5.00;99.90;;;;;;5010859;28;20034;-62
2022/02/22 01:34:11;;;;;;;21.98;3.60;;;5.00;99.90;;;;;;5012149;28;20468;-62
2022/02/22 01:36:36;;;;;;;21.63;3.63;;;5.00;99.90;;;;;;5011636;28;20033;-62
2022/02/22 01:39:03;;;;;;;24.20;4.25;;;5.00;99.90;;;;;;5011020;28;20029;-62
2022/02/22 01:41:29;;;;;;;31.55;3.13;;;4.90;99.90;;;;;;5011290;28;20460;-61
2022/02/22 01:43:55;;;;;;;24.45;3.25;;;4.90;99.90;;;;;;5011369;28;20045;-61
2022/02/22 01:46:21;;;;;;;28.77;3.83;;;4.90;99.90;;;;;;5011334;28;20064;-62
2022/02/22 01:48:47;;;;;;;33.65;3.53;;;4.90;99.90;;;;;;5009954;28;20034;-60
2022/02/22 01:51:13;;;;;;;28.70;4.28;;;4.80;99.90;;;;;;5011207;28;20544;-62
2022/02/22 01:53:39;;;;;;;28.23;4.60;;;4.80;99.90;;;;;;5011386;28;20072;-61
2022/02/22 01:56:07;;;;;;;22.60;3.47;;;4.80;99.90;;;;;;5009499;28;20436;-61
2022/02/22 01:58:34;;;;;;;37.97;5.90;;;4.70;99.90;;;;;;5011415;28;20041;-61
2022/02/22 02:00:59;;;;;;;24.65;3.80;;;4.70;99.90;;;;;;5010937;28;20058;-61
2022/02/22 02:03:26;;;;;;;22.00;4.18;;;4.70;99.90;;;;;;5010894;28;20065;-61
2022/02/22 02:05:52;;;;;;;21.35;4.07;;;4.70;99.90;;;;;;5010230;28;20497;-61
2022/02/22 02:08:18;;;;;;;16.00;2.40;;;4.60;99.90;;;;;;5011272;28;20042;-62
2022/02/22 02:10:44;;;;;;;17.48;3.80;;;4.60;99.90;;;;;;5009073;28;20559;-61
2022/02/22 02:13:10;;;;;;;19.38;3.17;;;4.60;99.90;;;;;;5006837;28;20054;-61
2022/02/22 02:15:36;;;;;;;27.48;3.45;;;4.60;99.90;;;;;;5010816;28;20465;-62
2022/02/22 02:18:01;;;;;;;17.45;2.17;;;4.50;99.90;;;;;;5010587;28;20080;-61
2022/02/22 02:20:27;;;;;;;38.88;4.68;;;4.50;99.90;;;;;;5010078;28;20133;-65
2022/02/22 02:22:52;;;;;;;19.40;2.80;;;4.50;99.90;;;;;;5009956;28;20034;-61
2022/02/22 02:25:18;;;;;;;20.27;3.35;;;4.40;99.90;;;;;;5010867;28;20556;-61
2022/02/22 02:27:44;;;;;;;26.27;2.83;;;4.40;99.90;;;;;;5010407;28;20041;-62
2022/02/22 02:30:11;;;;;;;22.52;4.00;;;4.40;99.90;;;;;;5010326;28;20088;-61
2022/02/22 02:32:37;;;;;;;30.10;3.45;;;4.40;99.90;;;;;;5010493;28;20042;-62
2022/02/22 02:35:04;;;;;;;25.92;4.53;;;4.40;99.90;;;;;;5010172;28;20030;-61
2022/02/22 02:37:30;;;;;;;28.27;3.75;;;4.40;99.90;;;;;;5010685;28;20860;-60
2022/02/22 02:39:55;;;;;;;22.85;3.13;;;4.40;99.90;;;;;;5009761;28;20109;-61
2022/02/22 02:42:21;;;;;;;29.08;3.20;;;4.40;99.90;;;;;;5010326;28;20145;-62
2022/02/22 02:44:48;;;;;;;21.10;2.90;;;4.40;99.90;;;;;;5010041;28;20042;-60
2022/02/22 02:47:15;;;;;;;26.33;3.78;;;4.50;99.90;;;;;;5008687;28;20071;-62
2022/02/22 02:49:42;;;;;;;23.42;3.25;;;4.40;99.90;;;;;;5010014;28;20485;-63
2022/02/22 02:52:08;;;;;;;30.08;4.38;;;4.50;99.90;;;;;;5006161;28;20041;-62
2022/02/22 02:54:35;;;;;;;20.42;3.53;;;4.50;99.90;;;;;;5009046;28;20072;-62
2022/02/22 02:57:01;;;;;;;24.15;3.00;;;4.40;99.90;;;;;;5009827;28;20038;-63
2022/02/22 02:59:26;;;;;;;28.10;3.13;;;4.40;99.90;;;;;;5010154;28;20037;-63
2022/02/22 03:01:52;;;;;;;22.35;4.28;;;4.40;99.90;;;;;;5009498;28;20081;-62
2022/02/22 03:04:19;;;;;;;13.68;2.08;;;4.40;99.90;;;;;;5008824;28;20045;-61
2022/02/22 03:06:45;;;;;;;27.17;3.80;;;4.40;99.90;;;;;;5008212;28;20034;-62
2022/02/22 03:09:12;;;;;;;26.77;2.70;;;4.40;99.90;;;;;;5009978;28;20107;-61
2022/02/22 03:11:38;;;;;;;28.02;3.35;;;4.40;99.90;;;;;;5008547;28;20030;-61
2022/02/22 03:14:05;;;;;;;23.80;3.55;;;4.50;99.90;;;;;;5008923;28;20030;-61
2022/02/22 03:16:31;;;;;;;19.58;3.05;;;4.50;99.90;;;;;;5009947;28;20098;-61
2022/02/22 03:18:56;;;;;;;22.25;2.92;;;4.50;99.90;;;;;;5009698;28;20533;-62
2022/02/22 03:21:22;;;;;;;30.92;3.60;;;4.50;99.90;;;;;;5009522;28;20046;-60
2022/02/22 03:23:48;;;;;;;18.75;3.85;;;4.50;99.90;;;;;;5009429;28;20054;-62
2022/02/22 03:26:13;;;;;;;11.73;2.20;;;4.50;99.90;;;;;;5009240;28;20034;-61
2022/02/22 03:28:39;;;;;;;19.95;2.28;;;4.40;99.90;;;;;;5009940;28;20030;-61
2022/02/22 03:31:05;;;;;;;24.52;2.88;;;4.40;99.90;;;;;;5009061;28;20080;-61
2022/02/22 03:33:31;;;;;;;21.25;3.28;;;4.40;99.90;;;;;;5009467;28;20045;-61
2022/02/22 03:35:58;;;;;;;35.72;2.83;;;4.40;99.90;;;;;;5009415;28;20034;-62
2022/02/22 03:38:24;;;;;;;16.52;2.58;;;4.40;99.90;;;;;;5009512;28;20436;-61
2022/02/22 03:40:49;;;;;;;21.40;2.67;;;4.30;99.90;;;;;;5008839;28;20030;-61
2022/02/22 03:43:15;;;;;;;31.02;3.70;;;4.30;99.90;;;;;;5009428;28;20053;-61
2022/02/22 03:45:41;;;;;;;29.33;3.20;;;4.30;99.90;;;;;;5008876;28;20061;-64
2022/02/22 03:48:06;;;;;;;23.55;2.85;;;4.30;99.90;;;;;;5009440;28;20069;-61
2022/02/22 03:50:32;;;;;;;25.13;3.85;;;4.30;99.90;;;;;;5009511;28;20030;-60
2022/02/22 03:52:58;;;;;;;25.13;3.00;;;4.30;99.90;;;;;;5009257;28;20053;-61
2022/02/22 03:55:24;;;;;;;22.95;3.60;;;4.30;99.90;;;;;;5009489;28;20065;-62
2022/02/22 03:57:49;;;;;;;23.02;4.60;;;4.30;99.90;;;;;;5007866;28;20589;-60
2022/02/22 04:00:20;;;;;;;22.10;2.75;;;4.30;99.90;;;;;;5009331;28;20046;-63
2022/02/22 04:02:46;;;;;;;16.80;1.83;;;4.30;99.90;;;;;;5008935;28;20038;-62
2022/02/22 04:05:14;;;;;;;20.08;2.70;;;4.30;99.90;;;;;;5008636;28;20042;-62
2022/02/22 04:07:39;;;;;;;26.77;3.17;;;4.20;99.90;;;;;;5009868;28;20726;-62
2022/02/22 04:10:07;;;;;;;17.33;2.97;;;4.20;99.90;;;;;;5008824;28;20034;-61
2022/02/22 04:12:33;;;;;;;19.10;3.15;;;4.20;99.90;;;;;;5005276;28;20037;-62
2022/02/22 04:14:59;;;;;;;22.95;2.78;;;4.10;99.90;;;;;;5009143;28;20034;-61
2022/02/22 04:17:24;;;;;;;14.63;2.17;;;4.10;99.90;;;;;;5009166;28;20444;-61
2022/02/22 04:19:50;;;;;;;20.88;3.22;;;4.10;99.90;;;;;;5007347;28;20105;-61
2022/02/22 04:22:16;;;;;;;33.00;3.78;;;4.00;99.90;;;;;;5009170;28;20105;-65
2022/02/22 04:24:43;;;;;;;23.23;2.50;;;4.00;99.90;;;;;;5007563;28;20037;-62
2022/02/22 04:27:08;;;;;;;18.63;2.45;;;4.00;99.90;;;;;;5009370;28;20128;-62
2022/02/22 04:29:35;;;;;;;24.73;4.72;;;3.90;99.90;;;;;;5008124;28;20113;-62
2022/02/22 04:32:02;;;;;;;15.57;2.33;;;3.90;99.90;;;;;;5007094;28;20046;-60
2022/02/22 04:34:27;;;;;;;19.90;3.40;;;3.90;99.90;;;;;;5009395;28;20034;-62
2022/02/22 04:36:53;;;;;;;19.60;4.20;;;3.90;99.90;;;;;;5008928;28;20053;-63
2022/02/22 04:39:19;;;;;;;26.67;3.30;;;3.90;99.90;;;;;;5012924;28;20431;-62
2022/02/22 04:41:44;;;;;;;20.90;3.72;;;3.90;99.90;;;;;;5012288;28;20049;-61
2022/02/22 04:44:10;;;;;;;19.00;3.03;;;3.90;99.90;;;;;;5012878;28;20430;-61
2022/02/22 04:46:35;;;;;;;18.70;4.18;;;3.90;99.90;;;;;;5012486;28;20036;-63
2022/02/22 04:49:01;;;;;;;16.73;2.78;;;3.90;99.90;;;;;;5012664;28;20042;-63
2022/02/22 04:51:27;;;;;;;17.20;2.53;;;3.90;99.90;;;;;;5011218;28;20037;-62
2022/02/22 04:53:53;;;;;;;13.98;2.00;;;3.90;99.90;;;;;;5010910;28;20038;-61
2022/02/22 04:56:18;;;;;;;28.13;3.40;;;3.80;99.90;;;;;;5012545;28;20034;-63
2022/02/22 04:58:44;;;;;;;17.67;2.33;;;3.80;99.90;;;;;;5010589;28;20561;-60
2022/02/22 05:01:10;;;;;;;23.80;3.17;;;3.80;99.90;;;;;;5012005;28;20034;-61
2022/02/22 05:03:35;;;;;;;17.52;3.15;;;3.80;99.90;;;;;;5012578;28;20049;-61
2022/02/22 05:06:01;;;;;;;21.73;3.05;;;3.80;99.90;;;;;;5011913;28;20060;-61
2022/02/22 05:08:26;;;;;;;26.45;2.70;;;3.70;99.90;;;;;;5012537;28;20168;-63
2022/02/22 05:10:53;;;;;;;22.45;3.53;;;3.70;99.90;;;;;;5011594;28;20556;-61
2022/02/22 05:13:19;;;;;;;21.35;2.10;;;3.70;99.90;;;;;;5012244;28;20555;-61
2022/02/22 05:15:44;;;;;;;19.45;3.63;;;3.70;99.90;;;;;;5011271;28;20029;-61
2022/02/22 05:18:10;;;;;;;16.60;3.15;;;3.60;99.90;;;;;;5012302;28;20367;-62
2022/02/22 05:20:35;;;;;;;23.88;2.20;;;3.60;99.90;;;;;;5011958;28;20033;-61
2022/02/22 05:23:01;;;;;;;16.00;2.08;;;3.60;99.90;;;;;;5011592;28;20115;-61
2022/02/22 05:25:27;;;;;;;13.68;1.70;;;3.60;99.90;;;;;;5012050;28;20029;-60
2022/02/22 05:27:52;;;;;;;16.42;2.78;;;3.60;99.90;;;;;;5011679;28;20093;-62
2022/02/22 05:30:18;;;;;;;25.00;4.00;;;3.50;99.90;;;;;;5010413;28;20141;-62
2022/02/22 05:32:45;;;;;;;19.83;3.40;;;3.50;99.90;;;;;;5010180;28;20030;-62
2022/02/22 05:35:12;;;;;;;23.63;2.67;;;3.50;99.90;;;;;;5009539;28;20045;-61
2022/02/22 05:37:39;;;;;;;17.40;3.22;;;3.40;99.90;;;;;;5010989;28;20038;-64
2022/02/22 05:40:06;;;;;;;14.85;2.53;;;3.40;99.90;;;;;;5008885;28;20053;-61
2022/02/22 05:42:33;;;;;;;23.15;3.22;;;3.40;99.90;;;;;;5011513;28;20037;-60
2022/02/22 05:44:59;;;;;;;27.85;3.00;;;3.40;99.90;;;;;;5010643;28;20422;-61
2022/02/22 05:47:26;;;;;;;21.60;2.58;;;3.50;99.90;;;;;;5011317;28;20052;-62
2022/02/22 05:49:51;;;;;;;22.40;2.25;;;3.50;99.90;;;;;;5005618;28;20654;-63
2022/02/22 05:52:17;;;;;;;16.13;2.15;;;3.50;99.90;;;;;;5010551;28;20092;-62
2022/02/22 05:54:43;;;;;;;26.25;2.13;;;3.50;99.90;;;;;;5010571;28;20058;-63
2022/02/22 05:57:09;;;;;;;17.63;2.90;;;3.60;99.90;;;;;;5010795;28;20683;-62
2022/02/22 05:59:35;;;;;;;16.33;2.42;;;3.60;99.90;;;;;;5008583;28;20458;-62
2022/02/22 06:02:01;;;;;;;37.20;5.40;;;3.60;99.90;;;;;;5010234;28;20061;-61
2022/02/22 06:04:27;;;;;;;28.88;2.70;;;3.60;99.90;;;;;;5010432;28;20040;-63
2022/02/22 06:06:53;;;;;;;13.38;2.28;;;3.70;99.90;;;;;;5009873;28;20036;-63
2022/02/22 06:09:19;;;;;;;22.27;2.85;;;3.70;99.90;;;;;;5004482;28;20096;-62
2022/02/22 06:11:45;;;;;;;24.42;2.08;;;3.80;99.90;;;;;;5006249;28;20034;-62
2022/02/22 06:14:11;;;;;;;26.40;3.92;;;3.80;99.90;;;;;;5005133;28;20112;-61
2022/02/22 06:16:37;;;;;;;16.05;2.78;;;3.90;99.90;;;;;;5004120;28;20117;-61
2022/02/22 06:19:03;;;;;;;18.33;3.05;;;4.00;99.90;;;;;;5005414;28;20120;-63
2022/02/22 06:21:29;;;;;;;25.25;3.80;;;4.00;99.90;;;;;;5005515;28;20041;-63
2022/02/22 06:23:54;;;;;;;23.77;2.80;;;4.00;99.90;;;;;;5002965;28;20042;-62
2022/02/22 06:26:20;;;;;;;13.82;1.85;;;4.10;99.90;;;;;;5004092;28;20038;-61
2022/02/22 06:28:46;;;;;;;15.02;1.52;;;4.10;99.90;;;;;;5007386;28;20061;-61
2022/02/22 06:31:13;;;;;;;21.52;2.33;;;4.10;99.90;;;;;;5007420;28;20474;-61
2022/02/22 06:33:38;;;;;;;15.93;3.03;;;4.10;99.90;;;;;;5004511;28;20038;-61
2022/02/22 06:36:04;;;;;;;17.17;2.58;;;4.20;99.90;;;;;;5001924;28;20025;-63
2022/02/22 06:38:30;;;;;;;13.93;3.33;;;4.20;99.90;;;;;;5007308;28;20038;-62
2022/02/22 06:40:57;;;;;;;13.13;2.00;;;4.20;99.90;;;;;;5005473;28;20032;-62
2022/02/22 06:43:23;;;;;;;17.05;3.60;;;4.30;99.90;;;;;;5022773;28;20096;-62
2022/02/22 06:45:49;;;;;;;18.98;4.35;;;4.40;99.90;;;;;;5004986;28;20117;-61
2022/02/22 06:48:15;;;;;;;23.52;2.85;;;4.40;99.90;;;;;;5004714;28;20069;-61
2022/02/22 06:50:42;;;;;;;12.55;2.10;;;4.40;99.90;;;;;;5005201;28;20387;-61
2022/02/22 06:53:10;;;;;;;25.85;4.35;;;4.30;99.90;;;;;;5006079;28;20099;-62
2022/02/22 06:55:36;;;;;;;21.05;3.05;;;4.30;99.90;;;;;;5005399;28;20034;-63
2022/02/22 06:58:06;;;;;;;24.50;2.20;;;4.30;99.90;;;;;;5004856;28;20541;-61
2022/02/22 07:00:32;;;;;;;26.52;3.13;;;4.30;99.90;;;;;;5003443;28;20030;-62
2022/02/22 07:02:58;;;;;;;22.92;2.42;;;4.40;99.90;;;;;;5004300;28;20034;-62
2022/02/22 07:05:24;;;;;;;15.38;2.72;;;4.40;99.90;;;;;;4998810;28;20038;-63
2022/02/22 07:07:50;;;;;;;24.05;1.88;;;4.50;99.90;;;;;;5004166;28;20038;-61
2022/02/22 07:10:16;;;;;;;18.58;2.28;;;4.60;99.90;;;;;;5006750;28;20064;-62
2022/02/22 07:12:43;;;;;;;18.63;2.50;;;4.60;99.90;;;;;;5005260;28;20111;-62
2022/02/22 07:15:09;;;;;;;18.17;2.08;;;4.70;99.90;;;;;;5004038;28;20042;-62
2022/02/22 07:18:06;;;;;;;25.92;3.17;;;4.80;99.90;;;;;;4999120;28;20046;-62
2022/02/22 07:20:32;;;;;;;8.82;1.88;;;4.90;99.90;;;;;;4992500;28;20117;-61
2022/02/22 07:22:59;;;;;;;14.20;1.58;;;4.90;99.90;;;;;;5001528;28;20041;-63
2022/02/22 07:25:26;;;;;;;8.48;1.17;;;5.00;99.90;;;;;;5006084;28;20091;-61
2022/02/22 07:27:53;;;;;;;9.32;1.50;;;5.00;99.90;;;;;;5002851;28;20033;-62
2022/02/22 07:30:20;;;;;;;9.82;1.98;;;5.00;99.90;;;;;;5004756;28;20454;-63
2022/02/22 07:32:47;;;;;;;11.27;1.25;;;5.00;99.90;;;;;;5005864;28;20038;-61
2022/02/22 07:35:14;;;;;;;20.80;2.80;;;5.10;99.90;;;;;;5004537;28;20045;-62
2022/02/22 07:37:40;;;;;;;17.70;2.70;;;5.10;99.90;;;;;;5004801;28;20061;-62
2022/02/22 07:40:09;;;;;;;11.63;1.58;;;5.20;99.90;;;;;;5004983;28;20124;-62
2022/02/22 07:42:35;;;;;;;12.90;1.73;;;5.20;99.90;;;;;;5003185;28;20134;-61
2022/02/22 07:45:01;;;;;;;8.02;1.60;;;5.20;99.90;;;;;;5005132;28;20037;-61
2022/02/22 07:47:27;;;;;;;12.70;2.10;;;5.40;99.90;;;;;;5019013;28;20042;-61
2022/02/22 07:49:53;;;;;;;11.05;2.10;;;5.40;99.90;;;;;;5004362;28;20041;-63
2022/02/22 07:52:18;;;;;;;15.95;2.40;;;5.50;99.90;;;;;;5006030;28;20041;-63
2022/02/22 07:54:44;;;;;;;19.55;1.75;;;5.50;99.90;;;;;;5004249;28;20030;-63
2022/02/22 07:57:09;;;;;;;10.52;1.73;;;5.50;99.90;;;;;;5002605;28;20065;-62
2022/02/22 07:59:35;;;;;;;12.55;1.92;;;5.70;99.90;;;;;;5005662;28;20049;-62
2022/02/22 08:02:00;;;;;;;19.02;2.90;;;5.70;99.90;;;;;;5004191;28;20605;-66
2022/02/22 08:04:27;;;;;;;18.83;3.63;;;5.70;99.90;;;;;;5003036;28;20037;-62
2022/02/22 08:06:59;;;;;;;14.95;2.70;;;5.80;99.90;;;;;;5007094;28;20034;-62
2022/02/22 08:09:25;;;;;;;18.45;1.60;;;5.90;99.90;;;;;;5001470;28;20041;-63
2022/02/22 08:11:51;;;;;;;9.07;1.40;;;5.90;99.90;;;;;;5006284;28;20025;-64
2022/02/22 08:14:16;;;;;;;17.23;2.35;;;6.00;99.90;;;;;;5006217;28;20034;-61
2022/02/22 08:16:42;;;;;;;22.55;2.53;;;6.00;99.90;;;;;;5011195;28;20042;-61
2022/02/22 08:19:08;;;;;;;13.13;2.50;;;6.20;99.90;;;;;;5007782;28;20038;-62
2022/02/22 08:21:34;;;;;;;13.15;2.47;;;6.40;99.90;;;;;;5010727;28;20501;-62
2022/02/22 08:24:00;;;;;;;17.33;2.65;;;6.40;99.90;;;;;;5008851;28;20057;-61
2022/02/22 08:26:25;;;;;;;17.55;3.00;;;6.50;99.90;;;;;;5006931;28;20037;-62
2022/02/22 08:28:51;;;;;;;11.38;2.95;;;6.60;99.90;;;;;;5009057;28;20029;-64
2022/02/22 08:31:17;;;;;;;13.05;2.28;;;6.60;99.90;;;;;;5006921;28;20050;-61
2022/02/22 08:33:43;;;;;;;13.93;2.60;;;6.70;99.90;;;;;;5009316;28;20043;-62
2022/02/22 08:36:10;;;;;;;15.05;2.63;;;6.70;99.90;;;;;;5005350;28;20030;-63
2022/02/22 08:38:37;;;;;;;22.98;3.58;;;6.80;99.90;;;;;;5006706;28;20026;-62
2022/02/22 08:41:03;;;;;;;17.30;3.63;;;6.80;99.90;;;;;;5009825;28;20551;-62
2022/02/22 08:43:28;;;;;;;25.20;3.92;;;6.90;99.90;;;;;;5005624;28;20054;-61
2022/02/22 08:45:54;;;;;;;24.05;3.05;;;6.90;99.90;;;;;;5007404;28;20034;-62
2022/02/22 08:48:19;;;;;;;31.17;5.28;;;6.90;99.90;;;;;;5012150;28;20050;-65
2022/02/22 08:50:45;;;;;;;30.05;5.10;;;7.00;99.90;;;;;;5007204;28;20064;-62
2022/02/22 08:53:12;;;;;;;21.35;4.60;;;7.10;99.90;;;;;;5007594;28;20041;-62
2022/02/22 08:55:38;;;;;;;26.48;3.40;;;7.10;99.90;;;;;;5006722;28;20037;-62
2022/02/22 08:58:03;;;;;;;17.17;2.83;;;7.20;99.90;;;;;;5006216;28;20041;-63
2022/02/22 09:00:31;;;;;;;23.50;2.70;;;7.30;99.90;;;;;;5007064;28;20101;-61
2022/02/22 09:03:00;;;;;;;16.60;2.60;;;7.30;99.90;;;;;;5008704;28;20037;-62
2022/02/22 09:05:29;;;;;;;21.38;3.30;;;7.40;99.90;;;;;;5009342;28;20141;-62
2022/02/22 09:07:55;;;;;;;29.05;4.80;;;7.50;99.90;;;;;;5006760;28;20029;-64
2022/02/22 09:10:22;;;;;;;35.17;4.15;;;7.60;99.90;;;;;;5007349;28;20109;-64
2022/02/22 09:12:48;;;;;;;22.25;3.70;;;7.60;99.90;;;;;;5008005;28;20038;-62
2022/02/22 09:15:16;;;;;;;18.02;3.28;;;7.60;99.90;;;;;;5003016;28;20092;-62
2022/02/22 09:17:42;;;;;;;17.80;2.72;;;7.80;99.90;;;;;;5009219;28;20073;-62
2022/02/22 09:20:10;;;;;;;19.70;2.58;;;7.70;99.90;;;;;;5009203;28;20108;-62
2022/02/22 09:22:36;;;;;;;22.17;3.42;;;7.80;99.90;;;;;;5006741;28;20122;-62
2022/02/22 09:25:03;;;;;;;16.20;2.80;;;7.90;99.90;;;;;;5007589;28;20588;-62
2022/02/22 09:27:28;;;;;;;17.10;2.97;;;7.90;99.90;;;;;;5010028;28;20068;-61
2022/02/22 09:29:54;;;;;;;14.77;2.50;;;7.80;99.90;;;;;;5008076;28;20106;-62
2022/02/22 09:32:19;;;;;;;24.45;2.60;;;7.80;99.90;;;;;;5006981;28;20045;-62
2022/02/22 09:34:45;;;;;;;20.58;4.10;;;7.80;99.90;;;;;;5006746;28;20030;-62
2022/02/22 09:37:11;;;;;;;22.58;3.28;;;7.70;99.90;;;;;;5010761;28;20457;-63
2022/02/22 09:39:38;;;;;;;19.52;3.00;;;7.80;99.90;;;;;;5006980;28;20042;-64
2022/02/22 09:42:07;;;;;;;10.70;2.78;;;7.80;99.90;;;;;;5008905;28;20038;-62
2022/02/22 09:44:34;;;;;;;15.30;3.13;;;7.70;99.90;;;;;;5012210;28;20038;-64
2022/02/22 09:47:01;;;;;;;22.75;3.78;;;7.70;99.90;;;;;;5009247;28;20041;-63
2022/02/22 09:49:26;;;;;;;24.05;4.60;;;7.70;99.90;;;;;;5009818;28;20034;-63
2022/02/22 09:51:53;;;;;;;20.42;3.28;;;7.80;99.90;;;;;;5025510;28;20357;-62
2022/02/22 09:54:20;;;;;;;23.88;4.00;;;7.80;99.90;;;;;;5008794;28;20121;-62
2022/02/22 09:56:46;;;;;;;18.00;3.05;;;7.80;99.90;;;;;;5011613;28;20117;-61
2022/02/22 09:59:13;;;;;;;20.88;4.38;;;7.80;99.90;;;;;;5011526;28;20120;-62
2022/02/22 10:01:42;;;;;;;22.65;4.38;;;7.80;99.90;;;;;;5010636;28;20084;-62
2022/02/22 10:04:08;;;;;;;18.67;3.83;;;7.90;99.90;;;;;;5007962;28;20481;-62
2022/02/22 10:06:34;;;;;;;21.98;4.28;;;7.80;99.90;;;;;;5008834;28;20038;-62
2022/02/22 10:08:59;;;;;;;20.48;2.97;;;7.90;99.90;;;;;;5011654;28;20030;-62
2022/02/22 10:11:25;;;;;;;26.17;5.15;;;8.00;99.90;;;;;;5011579;28;20026;-62
2022/02/22 10:13:51;;;;;;;18.35;4.40;;;8.00;99.90;;;;;;5011257;28;20041;-62
2022/02/22 10:16:17;;;;;;;27.20;3.88;;;8.00;99.90;;;;;;5011711;28;20022;-62
2022/02/22 10:18:53;;;;;;;19.75;2.80;;;8.00;99.90;;;;;;5011750;28;20034;-62
2022/02/22 10:21:20;;;;;;;16.58;2.97;;;8.10;99.90;;;;;;5006933;28;20100;-64
2022/02/22 10:23:47;;;;;;;20.83;3.70;;;8.10;99.90;;;;;;5008244;28;20109;-63
2022/02/22 10:26:20;;;;;;;33.42;3.63;;;8.20;99.90;;;;;;5011832;28;20073;-65
2022/02/22 10:28:46;;;;;;;13.93;2.97;;;8.20;99.90;;;;;;5010436;28;20096;-62
2022/02/22 10:31:12;;;;;;;30.02;4.53;;;8.30;99.90;;;;;;5004348;28;20034;-62
2022/02/22 10:33:44;;;;;;;23.92;3.17;;;8.40;99.90;;;;;;5026245;28;20061;-63
2022/02/22 10:36:18;;;;;;;37.78;6.10;;;8.40;99.90;;;;;;5006813;28;20042;-62
2022/02/22 10:38:44;;;;;;;30.33;3.92;;;8.40;99.90;;;;;;5009463;28;20038;-63
2022/02/22 10:41:16;;;;;;;24.13;4.20;;;8.30;99.90;;;;;;5006429;28;20536;-63
2022/02/22 10:43:53;;;;;;;32.03;4.22;;;8.20;99.90;;;;;;5011299;28;20041;-62
2022/02/22 10:46:27;;;;;;;23.05;3.80;;;8.20;99.90;;;;;;5006234;28;20383;-64
2022/02/22 10:49:01;;;;;;;20.38;4.93;;;8.10;99.90;;;;;;5004037;28;20197;-63
2022/02/22 10:51:35;;;;;;;22.58;3.60;;;7.90;99.90;;;;;;5004798;28;20520;-61
2022/02/22 10:54:01;;;;;;;21.45;3.97;;;7.80;99.90;;;;;;5004351;28;20064;-62
2022/02/22 10:56:30;;;;;;;15.80;3.17;;;7.80;99.90;;;;;;5002905;28;20520;-63
2022/02/22 10:58:57;;;;;;;25.70;5.10;;;7.70;99.90;;;;;;5003858;28;20042;-62
2022/02/22 11:01:23;;;;;;;25.85;3.72;;;7.70;99.90;;;;;;5006953;28;20042;-62
2022/02/22 11:03:50;;;;;;;20.67;3.30;;;7.60;99.90;;;;;;5000839;28;20105;-62
2022/02/22 11:06:16;;;;;;;22.88;3.70;;;7.60;99.90;;;;;;5001217;28;20042;-64
2022/02/22 11:08:47;;;;;;;19.85;3.75;;;7.70;99.90;;;;;;5004615;28;20096;-61
2022/02/22 11:11:38;;;;;;;25.08;6.57;;;7.70;99.90;;;;;;5000350;28;20448;-64
2022/02/22 11:14:17;;;;;;;27.20;4.03;;;7.70;99.90;;;;;;5000541;28;20964;-63
2022/02/22 11:16:47;;;;;;;23.13;4.15;;;7.70;99.90;;;;;;5001583;28;20039;-62
2022/02/22 11:19:37;;;;;;;22.63;3.22;;;7.70;99.90;;;;;;5000730;28;20187;-61
2022/02/22 11:22:12;;;;;;;21.40;3.15;;;7.70;99.90;;;;;;5002640;28;20046;-62
2022/02/22 11:24:49;;;;;;;23.20;4.45;;;7.80;99.90;;;;;;4997633;28;20025;-63
2022/02/22 11:27:30;;;;;;;20.25;5.28;;;7.80;99.90;;;;;;4998239;28;20038;-61
2022/02/22 11:29:56;;;;;;;21.58;3.30;;;7.90;99.90;;;;;;5001679;28;20482;-62
2022/02/22 11:32:23;;;;;;;19.25;4.07;;;8.00;99.90;;;;;;5003121;28;20033;-63
2022/02/22 11:34:49;;;;;;;11.70;3.25;;;8.00;99.90;;;;;;5000953;28;20469;-62
2022/02/22 11:37:17;;;;;;;18.05;3.70;;;8.00;99.90;;;;;;4998442;28;20034;-60
2022/02/22 11:39:51;;;;;;;17.85;3.95;;;8.10;99.90;;;;;;4999858;28;20410;-61
2022/02/22 11:42:31;;;;;;;22.70;4.72;;;8.20;99.90;;;;;;5002013;28;20046;-63
2022/02/22 11:45:04;;;;;;;17.70;3.42;;;8.30;99.90;;;;;;4999313;28;20037;-62
2022/02/22 11:47:31;;;;;;;17.13;4.82;;;8.40;99.90;;;;;;5030284;23;20040;-63
2022/02/22 11:49:58;;;;;;;17.48;5.00;;;8.60;99.90;;;;;;5038171;23;20109;-65
2022/02/22 11:52:48;;;;;;;24.85;4.35;;;8.70;99.90;;;;;;4974865;28;20030;-64
2022/02/22 11:55:19;;;;;;;16.60;2.67;;;8.70;99.90;;;;;;4975872;28;20035;-64
2022/02/22 11:57:50;;;;;;;24.95;4.53;;;8.80;99.90;;;;;;4984989;28;20491;-64
2022/02/22 12:00:18;;;;;;;25.52;4.85;;;8.80;99.90;;;;;;4981171;28;20470;-63
2022/02/22 12:02:44;;;;;;;22.75;4.97;;;8.80;99.90;;;;;;4963621;28;20043;-63
2022/02/22 12:05:33;;;;;;;24.65;4.30;;;8.90;99.90;;;;;;4967656;28;20552;-63
2022/02/22 12:08:00;;;;;;;22.92;5.03;;;9.00;99.90;;;;;;4963773;28;20483;-62
2022/02/22 12:10:26;;;;;;;26.40;5.13;;;9.00;99.90;;;;;;4963833;28;20046;-63
2022/02/22 12:13:03;;;;;;;24.40;4.28;;;9.00;99.90;;;;;;4965564;28;20027;-63
2022/02/22 12:15:32;;;;;;;24.05;4.22;;;9.00;99.90;;;;;;4967797;28;20089;-63
2022/02/22 12:17:58;;;;;;;24.83;5.63;;;9.00;99.90;;;;;;4964645;28;20035;-63
2022/02/22 12:20:28;;;;;;;22.45;4.97;;;9.00;99.90;;;;;;4964047;28;20084;-65
2022/02/22 12:22:54;;;;;;;19.73;5.07;;;9.00;99.90;;;;;;4966812;28;20092;-64
2022/02/22 12:25:25;;;;;;;17.83;5.45;;;9.10;99.90;;;;;;4967361;28;20407;-63
2022/02/22 12:27:59;;;;;;;15.50;3.70;;;9.20;99.90;;;;;;4981322;28;20535;-63
2022/02/22 12:30:36;;;;;;;29.45;5.78;;;9.20;99.90;;;;;;4965179;28;20046;-64
2022/02/22 12:33:03;;;;;;;17.33;4.13;;;9.20;99.90;;;;;;4967421;28;20039;-62
2022/02/22 12:35:34;;;;;;;21.30;5.25;;;9.20;99.90;;;;;;4965095;28;20415;-63
2022/02/22 12:38:01;;;;;;;15.75;3.10;;;9.30;99.90;;;;;;4963570;28;20027;-63
2022/02/22 12:40:31;;;;;;;18.83;3.22;;;9.30;99.90;;;;;;4966606;28;20054;-64
2022/02/22 12:43:04;;;;;;;22.48;4.03;;;9.50;99.90;;;;;;4967315;28;20035;-63
2022/02/22 12:45:43;;;;;;;21.08;3.03;;;9.60;99.90;;;;;;4966407;28;20049;-63
2022/02/22 12:48:10;;;;;;;18.85;3.63;;;9.60;99.90;;;;;;4959969;28;20122;-62